createdAt,value
2022-08-26T00:00:08.784Z,38.62
2022-08-26T00:02:40.551Z,38.89
2022-08-26T00:05:09.494Z,39.01
2022-08-26T00:07:37.351Z,38.87
2022-08-26T00:10:06.411Z,38.91
2022-08-26T00:12:35.898Z,39.10
2022-08-26T00:15:09.833Z,39.35
2022-08-26T00:17:37.777Z,39.62
2022-08-26T00:20:10.957Z,39.39
2022-08-26T00:22:38.822Z,39.72
2022-08-26T00:25:08.509Z,39.94
2022-08-26T00:27:36.923Z,39.87
2022-08-26T00:30:11.976Z,39.98
2022-08-26T00:32:40.212Z,40.13
2022-08-26T00:35:13.250Z,39.88
2022-08-26T00:37:42.516Z,40.24
2022-08-26T00:40:16.960Z,40.25
2022-08-26T00:42:45.948Z,40.29
2022-08-26T00:45:15.329Z,40.43
2022-08-26T00:48:00.025Z,40.36
2022-08-26T00:50:39.630Z,40.28
2022-08-26T00:53:25.880Z,40.34
2022-08-26T00:56:08.342Z,40.13
2022-08-26T00:58:38.195Z,40.45
2022-08-26T01:01:10.362Z,40.42
2022-08-26T01:03:39.244Z,40.53
2022-08-26T01:06:11.461Z,40.94
2022-08-26T01:08:41.661Z,41.05
2022-08-26T01:11:10.187Z,40.99
2022-08-26T01:13:38.918Z,40.88
2022-08-26T01:16:12.844Z,41.10
2022-08-26T01:18:43.179Z,40.30
2022-08-26T01:21:40.561Z,40.67
2022-08-26T01:24:11.041Z,40.72
2022-08-26T01:26:43.383Z,40.93
2022-08-26T01:29:17.870Z,40.79
2022-08-26T01:31:57.568Z,40.76
2022-08-26T01:34:30.959Z,40.87
2022-08-26T01:37:22.081Z,40.81
2022-08-26T01:39:53.931Z,41.03
2022-08-26T01:42:25.343Z,41.06
2022-08-26T01:45:05.810Z,40.97
2022-08-26T01:47:36.564Z,41.07
2022-08-26T01:50:13.383Z,41.25
2022-08-26T01:52:51.674Z,41.10
2022-08-26T01:55:32.255Z,41.22
2022-08-26T01:58:08.359Z,41.43
2022-08-26T02:00:37.717Z,41.45
2022-08-26T02:03:21.467Z,41.59
2022-08-26T02:05:58.726Z,41.67
2022-08-26T02:08:36.562Z,41.44
2022-08-26T02:11:05.102Z,41.52
2022-08-26T02:13:42.183Z,41.54
2022-08-26T02:16:11.882Z,41.73
2022-08-26T02:18:42.135Z,41.76
2022-08-26T02:21:12.690Z,41.89
2022-08-26T02:23:41.206Z,42.00
2022-08-26T02:26:19.844Z,41.77
2022-08-26T02:29:13.407Z,41.68
2022-08-26T02:31:42.766Z,41.89
2022-08-26T02:34:19.284Z,42.07
2022-08-26T02:36:49.470Z,42.12
2022-08-26T02:39:22.397Z,42.22
2022-08-26T02:41:50.584Z,42.25
2022-08-26T02:44:19.251Z,42.10
2022-08-26T02:46:47.435Z,42.19
2022-08-26T02:49:17.149Z,42.40
2022-08-26T02:51:45.790Z,42.12
2022-08-26T02:54:13.982Z,42.22
2022-08-26T02:56:42.562Z,41.95
2022-08-26T02:59:15.494Z,42.10
2022-08-26T03:01:45.272Z,42.03
2022-08-26T03:04:13.257Z,42.15
2022-08-26T03:06:43.100Z,41.95
2022-08-26T03:09:18.943Z,42.40
2022-08-26T03:11:47.378Z,42.27
2022-08-26T03:14:15.243Z,42.26
2022-08-26T03:16:43.972Z,42.29
2022-08-26T03:19:17.720Z,42.35
2022-08-26T03:21:47.381Z,42.40
2022-08-26T03:24:16.954Z,42.70
2022-08-26T03:26:52.722Z,42.37
2022-08-26T03:29:41.113Z,42.50
2022-08-26T03:32:09.630Z,42.53
2022-08-26T03:34:38.634Z,42.80
2022-08-26T03:37:06.801Z,42.85
2022-08-26T03:39:35.018Z,42.74
2022-08-26T03:42:02.915Z,42.81
2022-08-26T03:44:31.543Z,42.80
2022-08-26T03:47:00.471Z,42.85
2022-08-26T03:49:28.858Z,42.90
2022-08-26T03:51:56.916Z,42.94
2022-08-26T03:54:24.685Z,42.96
2022-08-26T03:56:52.583Z,42.81
2022-08-26T03:59:21.110Z,42.97
2022-08-26T04:01:49.059Z,43.05
2022-08-26T04:04:17.089Z,43.01
2022-08-26T04:06:45.234Z,43.13
2022-08-26T04:09:19.259Z,43.10
2022-08-26T04:11:50.763Z,43.07
2022-08-26T04:14:23.804Z,43.16
2022-08-26T04:16:52.743Z,43.22
2022-08-26T04:19:25.508Z,43.21
2022-08-26T04:21:54.540Z,43.39
2022-08-26T04:24:25.500Z,43.51
2022-08-26T04:26:53.947Z,43.54
2022-08-26T04:29:25.783Z,43.33
2022-08-26T04:31:58.103Z,43.55
2022-08-26T04:34:29.065Z,43.47
2022-08-26T04:36:58.297Z,43.69
2022-08-26T04:39:27.791Z,43.72
2022-08-26T04:41:57.916Z,43.76
2022-08-26T04:44:30.141Z,44.08
2022-08-26T04:46:58.697Z,43.94
2022-08-26T04:49:27.582Z,43.77
2022-08-26T04:51:55.480Z,44.04
2022-08-26T04:54:23.800Z,43.97
2022-08-26T04:56:53.148Z,44.10
2022-08-26T04:59:21.586Z,44.14
2022-08-26T05:01:53.355Z,44.33
2022-08-26T05:04:21.421Z,44.20
2022-08-26T05:06:50.418Z,44.49
2022-08-26T05:09:19.232Z,44.45
2022-08-26T05:11:48.417Z,44.20
2022-08-26T05:14:23.291Z,44.33
2022-08-26T05:16:52.194Z,44.20
2022-08-26T05:19:21.187Z,44.53
2022-08-26T05:21:49.604Z,44.21
2022-08-26T05:24:18.071Z,44.29
2022-08-26T05:26:47.308Z,44.42
2022-08-26T05:29:16.968Z,44.17
2022-08-26T05:31:44.937Z,44.38
2022-08-26T05:34:13.393Z,44.14
2022-08-26T05:36:42.037Z,44.10
2022-08-26T05:39:10.625Z,44.32
2022-08-26T05:41:41.863Z,44.57
2022-08-26T05:44:12.931Z,44.48
2022-08-26T05:46:44.147Z,44.55
2022-08-26T05:49:14.551Z,44.65
2022-08-26T05:51:46.404Z,44.84
2022-08-26T05:54:22.111Z,44.67
2022-08-26T05:56:53.326Z,44.96
2022-08-26T05:59:24.695Z,44.92
2022-08-26T06:01:55.151Z,44.90
2022-08-26T06:04:27.103Z,44.96
2022-08-26T06:07:01.180Z,44.82
2022-08-26T06:09:29.248Z,44.82
2022-08-26T06:11:58.904Z,44.93
2022-08-26T06:14:26.694Z,44.91
2022-08-26T06:16:55.184Z,45.06
2022-08-26T06:19:23.457Z,45.07
2022-08-26T06:21:54.057Z,45.14
2022-08-26T06:24:42.093Z,44.87
2022-08-26T06:27:15.311Z,44.68
2022-08-26T06:29:44.127Z,44.69
2022-08-26T06:32:12.934Z,44.59
2022-08-26T06:34:41.064Z,44.63
2022-08-26T06:37:09.821Z,44.68
2022-08-26T06:39:41.252Z,44.88
2022-08-26T06:42:10.870Z,44.86
2022-08-26T06:44:38.988Z,44.82
2022-08-26T06:47:09.047Z,44.73
2022-08-26T06:49:37.266Z,44.59
2022-08-26T06:52:05.080Z,44.40
2022-08-26T06:54:32.884Z,44.50
2022-08-26T06:57:01.187Z,44.34
2022-08-26T06:59:31.222Z,44.68
2022-08-26T07:01:59.188Z,44.70
2022-08-26T07:04:28.092Z,44.57
2022-08-26T07:06:56.618Z,44.64
2022-08-26T07:09:29.261Z,44.59
2022-08-26T07:11:57.748Z,44.47
2022-08-26T07:14:26.645Z,44.63
2022-08-26T07:17:02.875Z,44.57
2022-08-26T07:19:31.725Z,44.55
2022-08-26T07:22:05.889Z,44.41
2022-08-26T07:24:42.501Z,44.46
2022-08-26T07:27:14.937Z,44.79
2022-08-26T07:29:43.725Z,44.59
2022-08-26T07:32:14.349Z,44.77
2022-08-26T07:34:42.706Z,44.75
2022-08-26T07:37:11.107Z,44.39
2022-08-26T07:39:41.658Z,44.72
2022-08-26T07:42:14.224Z,44.58
2022-08-26T07:44:43.228Z,44.31
2022-08-26T07:47:25.663Z,44.12
2022-08-26T07:49:57.396Z,43.78
2022-08-26T07:52:28.314Z,43.75
2022-08-26T07:54:58.734Z,43.63
2022-08-26T07:57:28.492Z,43.64
2022-08-26T07:59:56.853Z,43.68
2022-08-26T08:02:26.728Z,44.03
2022-08-26T08:04:55.533Z,43.39
2022-08-26T08:07:38.486Z,43.12
2022-08-26T08:10:17.538Z,43.06
2022-08-26T08:12:47.055Z,43.19
2022-08-26T08:15:17.567Z,42.88
2022-08-26T08:17:45.468Z,42.92
2022-08-26T08:20:14.516Z,42.63
2022-08-26T08:22:43.215Z,42.65
2022-08-26T08:25:12.520Z,42.45
2022-08-26T08:27:42.989Z,42.79
2022-08-26T08:30:14.341Z,42.24
2022-08-26T08:32:45.672Z,42.40
2022-08-26T08:35:18.153Z,42.14
2022-08-26T08:37:46.215Z,42.02
2022-08-26T08:40:18.279Z,42.05
2022-08-26T08:43:03.781Z,41.70
2022-08-26T08:45:59.876Z,41.92
2022-08-26T08:48:33.395Z,41.34
2022-08-26T08:51:22.358Z,41.58
2022-08-26T08:53:54.563Z,41.24
2022-08-26T08:56:53.208Z,40.94
2022-08-26T08:59:34.139Z,41.16
2022-08-26T09:02:25.533Z,41.01
2022-08-26T09:05:17.435Z,41.09
2022-08-26T09:08:02.120Z,40.98
2022-08-26T09:10:52.867Z,40.73
2022-08-26T09:13:25.117Z,41.09
2022-08-26T09:16:24.867Z,40.43
2022-08-26T09:19:21.221Z,40.28
2022-08-26T09:21:57.812Z,40.51
2022-08-26T09:24:28.442Z,40.47
2022-08-26T09:27:46.069Z,40.11
2022-08-26T09:30:29.461Z,39.98
2022-08-26T09:33:14.512Z,40.13
2022-08-26T09:35:48.597Z,40.11
2022-08-26T09:38:33.580Z,40.25
2022-08-26T09:41:08.331Z,40.16
2022-08-26T09:43:37.015Z,39.71
2022-08-26T09:46:20.661Z,39.74
2022-08-26T09:48:48.520Z,39.40
2022-08-26T09:51:23.498Z,39.40
2022-08-26T09:53:57.380Z,39.39
2022-08-26T09:56:33.416Z,39.03
2022-08-26T09:59:02.700Z,38.84
2022-08-26T10:01:42.937Z,39.19
2022-08-26T10:04:25.100Z,39.27
2022-08-26T10:07:05.292Z,38.53
2022-08-26T10:09:43.391Z,38.75
2022-08-26T10:12:21.252Z,38.50
2022-08-26T10:14:56.280Z,38.71
2022-08-26T10:17:32.350Z,38.92
2022-08-26T10:20:23.609Z,38.72
2022-08-26T10:23:12.272Z,38.64
2022-08-26T10:26:16.435Z,38.25
2022-08-26T10:29:07.584Z,37.87
2022-08-26T10:31:48.342Z,38.12
2022-08-26T10:34:21.188Z,38.13
2022-08-26T10:37:15.610Z,37.96
2022-08-26T10:39:56.969Z,37.75
2022-08-26T10:43:11.372Z,38.15
2022-08-26T10:45:47.802Z,37.94
2022-08-26T10:48:52.643Z,38.22
2022-08-26T10:51:42.125Z,37.58
2022-08-26T10:55:03.164Z,37.94
2022-08-26T10:57:49.358Z,37.25
2022-08-26T11:00:58.605Z,37.01
2022-08-26T11:03:37.107Z,36.66
2022-08-26T11:06:24.129Z,36.57
2022-08-26T11:08:59.876Z,36.55
2022-08-26T11:11:47.006Z,36.48
2022-08-26T11:14:28.446Z,36.04
2022-08-26T11:16:57.619Z,35.22
2022-08-26T11:19:59.722Z,35.61
2022-08-26T11:22:47.642Z,34.89
2022-08-26T11:25:22.264Z,34.94
2022-08-26T11:27:57.729Z,34.51
2022-08-26T11:30:25.796Z,32.74
2022-08-26T11:32:58.923Z,33.01
2022-08-26T11:35:27.338Z,32.56
2022-08-26T11:38:20.231Z,32.88
2022-08-26T11:41:21.005Z,32.68
2022-08-26T11:43:52.275Z,31.62
2022-08-26T11:46:28.324Z,31.63
2022-08-26T11:49:05.869Z,31.60
2022-08-26T11:51:40.368Z,32.18
2022-08-26T11:54:35.359Z,31.92
2022-08-26T11:57:09.502Z,32.13
2022-08-26T11:59:42.353Z,31.86
2022-08-26T12:02:18.196Z,31.79
2022-08-26T12:04:50.648Z,31.56
2022-08-26T12:07:24.494Z,29.79
2022-08-26T12:09:58.662Z,30.73
2022-08-26T12:12:36.118Z,30.60
2022-08-26T12:15:13.781Z,30.67
2022-08-26T12:17:43.360Z,30.16
2022-08-26T12:20:32.019Z,30.17
2022-08-26T12:23:00.875Z,30.04
2022-08-26T12:25:35.935Z,29.52
2022-08-26T12:28:06.244Z,29.21
2022-08-26T12:30:34.359Z,29.52
2022-08-26T12:33:21.953Z,29.58
2022-08-26T12:35:56.368Z,29.64
2022-08-26T12:38:26.916Z,30.61
2022-08-26T12:40:57.212Z,30.04
2022-08-26T12:43:45.876Z,30.60
2022-08-26T12:46:23.127Z,30.75
2022-08-26T12:48:51.246Z,32.63
2022-08-26T12:51:29.120Z,34.60
2022-08-26T12:53:57.728Z,35.29
2022-08-26T12:56:39.614Z,34.13
2022-08-26T12:59:26.652Z,34.37
2022-08-26T13:01:54.799Z,33.90
2022-08-26T13:04:37.889Z,34.04
2022-08-26T13:07:21.278Z,33.58
2022-08-26T13:09:51.884Z,33.63
2022-08-26T13:12:32.540Z,33.97
2022-08-26T13:15:02.630Z,33.66
2022-08-26T13:17:31.289Z,33.90
2022-08-26T13:20:03.467Z,33.82
2022-08-26T13:22:31.778Z,33.09
2022-08-26T13:24:59.583Z,32.58
2022-08-26T13:27:28.062Z,31.86
2022-08-26T13:29:57.416Z,32.08
2022-08-26T13:32:27.767Z,31.89
2022-08-26T13:34:57.459Z,31.60
2022-08-26T13:37:35.285Z,31.89
2022-08-26T13:40:06.924Z,31.88
2022-08-26T13:42:34.951Z,31.48
2022-08-26T13:45:03.654Z,31.07
2022-08-26T13:47:31.547Z,31.12
2022-08-26T13:49:59.388Z,30.83
2022-08-26T13:52:30.785Z,31.49
2022-08-26T13:55:02.767Z,30.11
2022-08-26T13:57:31.441Z,30.11
2022-08-26T13:59:59.800Z,29.45
2022-08-26T14:02:28.235Z,29.44
2022-08-26T14:04:56.447Z,29.44
2022-08-26T14:07:26.309Z,29.45
2022-08-26T14:09:54.491Z,29.10
2022-08-26T14:12:22.602Z,28.54
2022-08-26T14:14:50.694Z,28.36
2022-08-26T14:17:22.499Z,27.66
2022-08-26T14:19:51.575Z,27.94
2022-08-26T14:22:22.192Z,27.80
2022-08-26T14:24:50.567Z,27.81
2022-08-26T14:27:18.362Z,27.40
2022-08-26T14:29:46.109Z,27.11
2022-08-26T14:32:24.980Z,27.06
2022-08-26T14:34:54.660Z,26.82
2022-08-26T14:37:23.404Z,26.70
2022-08-26T14:39:51.873Z,25.80
2022-08-26T14:42:27.921Z,26.21
2022-08-26T14:45:05.338Z,25.44
2022-08-26T14:47:33.157Z,25.29
2022-08-26T14:50:01.097Z,25.93
2022-08-26T14:52:29.737Z,26.01
2022-08-26T14:54:57.528Z,26.16
2022-08-26T14:57:25.339Z,26.26
2022-08-26T14:59:53.315Z,26.37
2022-08-26T15:02:33.146Z,26.95
2022-08-26T15:05:02.973Z,27.06
2022-08-26T15:07:31.851Z,27.11
2022-08-26T15:09:59.804Z,27.19
2022-08-26T15:12:28.352Z,28.01
2022-08-26T15:14:56.182Z,27.70
2022-08-26T15:17:24.148Z,28.08
2022-08-26T15:19:52.495Z,29.08
2022-08-26T15:22:20.319Z,30.06
2022-08-26T15:24:48.179Z,32.16
2022-08-26T15:27:21.627Z,32.45
2022-08-26T15:29:49.524Z,32.08
2022-08-26T15:32:17.527Z,32.95
2022-08-26T15:34:45.650Z,33.45
2022-08-26T15:37:13.439Z,33.75
2022-08-26T15:39:41.223Z,34.57
2022-08-26T15:42:09.020Z,34.83
2022-08-26T15:44:37.148Z,34.98
2022-08-26T15:47:05.134Z,36.48
2022-08-26T15:49:33.099Z,38.26
2022-08-26T15:52:04.219Z,40.51
2022-08-26T15:54:33.538Z,44.52
2022-08-26T15:57:03.643Z,46.71
2022-08-26T15:59:31.902Z,50.71
2022-08-26T16:02:01.658Z,54.98
2022-08-26T16:04:29.489Z,56.91
2022-08-26T16:06:57.329Z,60.29
2022-08-26T16:09:27.164Z,61.04
2022-08-26T16:11:56.267Z,62.56
2022-08-26T16:14:25.114Z,62.65
2022-08-26T16:16:53.533Z,65.88
2022-08-26T16:19:22.302Z,68.12
2022-08-26T16:21:51.549Z,68.79
2022-08-26T16:24:28.377Z,68.78
2022-08-26T16:26:58.083Z,69.07
2022-08-26T16:29:26.430Z,69.13
2022-08-26T16:31:54.831Z,68.86
2022-08-26T16:34:22.895Z,68.43
2022-08-26T16:36:50.801Z,68.07
2022-08-26T16:39:18.592Z,67.47
2022-08-26T16:41:46.456Z,67.17
2022-08-26T16:44:14.285Z,66.79
2022-08-26T16:46:42.317Z,66.52
2022-08-26T16:49:10.229Z,66.30
2022-08-26T16:51:38.555Z,66.32
2022-08-26T16:54:08.896Z,66.11
2022-08-26T16:56:37.839Z,66.71
2022-08-26T16:59:10.540Z,66.40
2022-08-26T17:01:38.513Z,66.88
2022-08-26T17:04:06.698Z,66.40
2022-08-26T17:06:35.205Z,66.62
2022-08-26T17:09:03.635Z,66.85
2022-08-26T17:11:31.583Z,66.28
2022-08-26T17:13:59.467Z,66.57
2022-08-26T17:16:27.681Z,66.92
2022-08-26T17:18:58.139Z,66.93
2022-08-26T17:21:28.394Z,66.21
2022-08-26T17:23:56.847Z,66.13
2022-08-26T17:26:25.080Z,65.61
2022-08-26T17:28:53.391Z,66.22
2022-08-26T17:31:22.434Z,66.20
2022-08-26T17:33:53.667Z,66.75
2022-08-26T17:36:27.653Z,67.06
2022-08-26T17:38:58.496Z,66.57
2022-08-26T17:41:27.170Z,66.09
2022-08-26T17:43:55.841Z,66.58
2022-08-26T17:46:24.506Z,66.97
2022-08-26T17:48:53.101Z,67.18
2022-08-26T17:51:22.847Z,67.43
2022-08-26T17:53:52.611Z,67.45
2022-08-26T17:56:29.813Z,68.23
2022-08-26T17:59:04.136Z,67.78
2022-08-26T18:01:33.191Z,67.42
2022-08-26T18:06:30.796Z,68.22
2022-08-26T18:09:00.679Z,67.97
2022-08-26T18:11:29.859Z,68.09
2022-08-26T18:13:58.400Z,68.37
2022-08-26T18:16:27.561Z,68.71
2022-08-26T18:18:56.011Z,68.03
2022-08-26T18:21:26.718Z,67.77
2022-08-26T18:23:55.640Z,67.46
2022-08-26T18:26:30.494Z,67.39
2022-08-26T18:28:59.385Z,67.25
2022-08-26T18:31:28.356Z,67.48
2022-08-26T18:33:57.001Z,66.95
2022-08-26T18:36:33.332Z,67.19
2022-08-26T18:39:03.707Z,66.98
2022-08-26T18:41:34.447Z,67.48
2022-08-26T18:44:02.762Z,67.22
2022-08-26T18:46:31.239Z,66.83
2022-08-26T18:49:00.226Z,67.29
2022-08-26T18:51:31.786Z,67.48
2022-08-26T18:54:02.654Z,67.21
2022-08-26T18:56:31.460Z,66.97
2022-08-26T18:59:00.263Z,67.11
2022-08-26T19:01:31.067Z,67.55
2022-08-26T19:04:01.800Z,67.46
2022-08-26T19:06:33.163Z,67.62
2022-08-26T19:09:06.428Z,67.22
2022-08-26T19:11:42.263Z,67.48
2022-08-26T19:14:15.489Z,66.78
2022-08-26T19:16:47.721Z,66.80
2022-08-26T19:19:16.241Z,66.91
2022-08-26T19:21:45.886Z,67.48
2022-08-26T19:24:17.655Z,67.44
2022-08-26T19:26:57.034Z,67.25
2022-08-26T19:29:33.631Z,67.45
2022-08-26T19:32:03.989Z,67.35
2022-08-26T19:34:32.455Z,67.31
2022-08-26T19:37:00.635Z,67.60
2022-08-26T19:39:29.075Z,67.72
2022-08-26T19:41:57.428Z,67.75
2022-08-26T19:44:43.853Z,67.37
2022-08-26T19:47:15.671Z,67.38
2022-08-26T19:49:43.866Z,67.14
2022-08-26T19:52:12.528Z,67.41
2022-08-26T19:54:41.353Z,67.02
2022-08-26T19:57:09.533Z,67.33
2022-08-26T19:59:37.638Z,67.20
2022-08-26T20:02:10.552Z,67.50
2022-08-26T20:04:39.928Z,67.46
2022-08-26T20:07:09.302Z,67.30
2022-08-26T20:09:38.468Z,67.69
2022-08-26T20:12:08.137Z,68.39
2022-08-26T20:14:37.774Z,68.40
2022-08-26T20:17:06.618Z,68.29
2022-08-26T20:19:54.091Z,68.41
2022-08-26T20:22:22.896Z,68.20
2022-08-26T20:24:51.920Z,68.37
2022-08-26T20:27:22.304Z,68.25
2022-08-26T20:29:50.383Z,68.64
2022-08-26T20:32:19.722Z,67.97
2022-08-26T20:34:49.305Z,68.35
2022-08-26T20:37:21.456Z,68.17
2022-08-26T20:39:49.795Z,68.30
2022-08-26T20:42:20.353Z,68.83
2022-08-26T20:44:54.704Z,68.21
2022-08-26T20:47:23.505Z,68.12
2022-08-26T20:49:52.308Z,67.95
2022-08-26T20:52:21.227Z,68.05
2022-08-26T20:54:49.431Z,67.86
2022-08-26T20:57:17.655Z,67.70
2022-08-26T20:59:45.864Z,67.36
2022-08-26T21:02:13.935Z,67.33
2022-08-26T21:04:42.054Z,67.61
2022-08-26T21:07:10.324Z,67.31
2022-08-26T21:09:38.421Z,67.50
2022-08-26T21:12:06.627Z,67.72
2022-08-26T21:14:34.830Z,68.06
2022-08-26T21:17:04.089Z,67.84
2022-08-26T21:19:32.295Z,67.93
2022-08-26T21:22:00.497Z,68.01
2022-08-26T21:24:28.602Z,67.62
2022-08-26T21:26:56.783Z,67.58
2022-08-26T21:29:25.224Z,67.74
2022-08-26T21:31:53.484Z,68.13
2022-08-26T21:34:21.629Z,67.84
2022-08-26T21:36:50.189Z,68.08
2022-08-26T21:39:18.893Z,67.87
2022-08-26T21:41:47.567Z,67.77
2022-08-26T21:44:17.814Z,67.79
2022-08-26T21:46:47.320Z,67.71
2022-08-26T21:49:16.618Z,67.67
2022-08-26T21:51:48.165Z,67.64
2022-08-26T21:54:18.203Z,67.22
2022-08-26T21:56:48.290Z,67.00
2022-08-26T21:59:19.034Z,67.01
2022-08-26T22:01:47.936Z,67.33
2022-08-26T22:04:17.096Z,67.17
2022-08-26T22:06:52.260Z,66.85
2022-08-26T22:09:25.274Z,66.61
2022-08-26T22:11:56.974Z,66.94
2022-08-26T22:14:30.424Z,66.94
2022-08-26T22:16:59.946Z,66.92
2022-08-26T22:19:28.393Z,66.84
2022-08-26T22:21:57.074Z,66.73
2022-08-26T22:24:27.561Z,66.62
2022-08-26T22:26:56.481Z,65.95
2022-08-26T22:29:25.792Z,66.25
2022-08-26T22:31:54.270Z,66.56
2022-08-26T22:34:23.283Z,66.92
2022-08-26T22:36:51.928Z,66.49
2022-08-26T22:39:23.631Z,66.46
2022-08-26T22:41:53.997Z,66.46
2022-08-26T22:44:23.270Z,67.12
2022-08-26T22:46:54.461Z,66.85
2022-08-26T22:49:23.402Z,67.11
2022-08-26T22:51:51.824Z,67.39
2022-08-26T22:54:20.388Z,67.22
2022-08-26T22:56:48.839Z,67.31
2022-08-26T22:59:17.030Z,67.30
2022-08-26T23:01:46.580Z,67.17
2022-08-26T23:04:15.260Z,67.83
2022-08-26T23:06:47.703Z,67.44
2022-08-26T23:09:18.733Z,67.21
2022-08-26T23:11:49.821Z,67.83
2022-08-26T23:14:19.359Z,67.35
2022-08-26T23:16:47.902Z,67.59
2022-08-26T23:19:20.183Z,67.97
2022-08-26T23:21:49.094Z,67.54
2022-08-26T23:24:18.041Z,67.64
2022-08-26T23:26:46.579Z,67.56
2022-08-26T23:29:16.001Z,67.90
2022-08-26T23:31:44.256Z,67.75
2022-08-26T23:34:31.347Z,67.71
2022-08-26T23:37:00.968Z,67.25
2022-08-26T23:39:32.210Z,67.36
2022-08-26T23:42:01.790Z,67.22
2022-08-26T23:44:32.347Z,66.92
2022-08-26T23:47:01.239Z,67.05
2022-08-26T23:49:29.928Z,66.85
2022-08-26T23:52:18.432Z,66.98
2022-08-26T23:54:48.802Z,66.87
2022-08-26T23:57:18.771Z,66.96
2022-08-26T23:59:47.103Z,66.52
